EZY61JA EGKK-LGSK
Flight info
| Callsign | EZY61JA |
|---|---|
| Flight time | N/A |
| Altitude | 35000 |
| Route | ODVIK Y311 DVR UL9 KONAN DCT KOK DCT RITAX DCT EDISA DCT KUNOD DCT GEDSO DCT GIMIX DCT GORPA DCT DEVUL DCT LIKVI DCT REMSO DCT MEDUX UM867 KOGAT DCT ERANA DCT TSL UL617 IBIDI |
| Aircraft | A320/M-SDE3FGHIRWY/LB1 |
Departure
| Time | 2026-05-04 11:16 |
|---|---|
| Airport | London Gatwick Airport (EGKK) |
Arrival
| Time | N/A |
|---|---|
| Airport | Skiathos Island National Airport (LGSK) |
| Time | Latitude | Longitude | Altitude | Speed | Heading |
|---|---|---|---|---|---|
| 2026-05-04 10:29 | 51.16249 | -0.18061 | 205 ft | 0 kts | 77° |
| 2026-05-04 10:45 | 51.16246 | -0.18078 | 215 ft | 4 kts | 77° |
| 2026-05-04 10:45 | 51.16240 | -0.18119 | 213 ft | 4 kts | 78° |
| 2026-05-04 10:46 | 51.16235 | -0.18161 | 217 ft | 4 kts | 83° |
| 2026-05-04 10:46 | 51.16234 | -0.18203 | 217 ft | 4 kts | 110° |
| 2026-05-04 10:46 | 51.16243 | -0.18223 | 212 ft | 0 kts | 167° |
| 2026-05-04 10:52 | 51.16236 | -0.18220 | 211 ft | 4 kts | 167° |
| 2026-05-04 10:54 | 51.15785 | -0.18063 | 211 ft | 8 kts | 167° |
| 2026-05-04 10:54 | 51.15718 | -0.18040 | 213 ft | 10 kts | 174° |
| 2026-05-04 10:56 | 51.15319 | -0.18255 | 205 ft | 17 kts | 168° |
| 2026-05-04 10:56 | 51.15224 | -0.18226 | 209 ft | 11 kts | 176° |
| 2026-05-04 10:56 | 51.15188 | -0.18312 | 210 ft | 13 kts | 265° |
| 2026-05-04 10:57 | 51.15164 | -0.18495 | 209 ft | 21 kts | 259° |
| 2026-05-04 10:57 | 51.15132 | -0.18728 | 204 ft | 22 kts | 257° |
| 2026-05-04 10:57 | 51.15099 | -0.18966 | 213 ft | 22 kts | 258° |
| 2026-05-04 10:57 | 51.15066 | -0.19208 | 207 ft | 23 kts | 257° |
| 2026-05-04 10:58 | 51.15032 | -0.19453 | 205 ft | 23 kts | 257° |
| 2026-05-04 10:58 | 51.14997 | -0.19710 | 210 ft | 24 kts | 258° |
| 2026-05-04 10:58 | 51.14960 | -0.19977 | 205 ft | 25 kts | 257° |
| 2026-05-04 10:58 | 51.14922 | -0.20253 | 205 ft | 26 kts | 258° |
| 2026-05-04 10:59 | 51.14882 | -0.20539 | 208 ft | 27 kts | 257° |
| 2026-05-04 10:59 | 51.14843 | -0.20823 | 205 ft | 22 kts | 258° |
| 2026-05-04 10:59 | 51.14810 | -0.21054 | 212 ft | 17 kts | 257° |
| 2026-05-04 10:59 | 51.14786 | -0.21187 | 207 ft | 11 kts | 246° |
| 2026-05-04 11:00 | 51.14777 | -0.21233 | 205 ft | 0 kts | 256° |
| 2026-05-04 11:01 | 51.14723 | -0.21406 | 208 ft | 0 kts | 183° |
| 2026-05-04 11:12 | 51.14721 | -0.21407 | 205 ft | 0 kts | 183° |
| 2026-05-04 11:14 | 51.14684 | -0.21394 | 205 ft | 10 kts | 155° |
| 2026-05-04 11:14 | 51.14634 | -0.21335 | 208 ft | 8 kts | 160° |
| 2026-05-04 11:16 | 51.14715 | -0.19765 | 211 ft | 120 kts | 77° |
| 2026-05-04 11:16 | 51.14930 | -0.18206 | 267 ft | 161 kts | 77° |
| 2026-05-04 11:16 | 51.15170 | -0.16470 | 927 ft | 160 kts | 78° |
| 2026-05-04 11:17 | 51.15405 | -0.14732 | 1543 ft | 164 kts | 78° |
| 2026-05-04 11:17 | 51.15658 | -0.12870 | 1757 ft | 185 kts | 77° |
| 2026-05-04 11:19 | 51.16739 | 0.05546 | 5652 ft | 270 kts | 92° |
| 2026-05-04 11:19 | 51.16682 | 0.08559 | 6432 ft | 274 kts | 92° |
| 2026-05-04 11:19 | 51.16624 | 0.11574 | 7160 ft | 278 kts | 93° |
| 2026-05-04 11:19 | 51.16563 | 0.14677 | 7900 ft | 282 kts | 93° |
| 2026-05-04 11:20 | 51.16522 | 0.17822 | 8686 ft | 286 kts | 91° |
| 2026-05-04 11:20 | 51.16520 | 0.21015 | 9460 ft | 290 kts | 91° |
| 2026-05-04 11:20 | 51.16533 | 0.24249 | 10183 ft | 294 kts | 91° |
| 2026-05-04 11:20 | 51.16551 | 0.27525 | 10859 ft | 297 kts | 91° |
| 2026-05-04 11:22 | 51.16593 | 0.51434 | 15082 ft | 330 kts | 91° |
| 2026-05-04 11:22 | 51.16588 | 0.55197 | 15214 ft | 349 kts | 91° |
| 2026-05-04 11:23 | 51.16582 | 0.59164 | 15347 ft | 368 kts | 91° |
| 2026-05-04 11:23 | 51.16576 | 0.63337 | 15477 ft | 385 kts | 91° |
| 2026-05-04 11:24 | 51.16519 | 0.89877 | 18110 ft | 409 kts | 92° |
| 2026-05-04 11:25 | 51.16498 | 0.94421 | 18610 ft | 412 kts | 92° |
| 2026-05-04 11:25 | 51.16475 | 0.99001 | 19045 ft | 415 kts | 92° |
| 2026-05-04 11:25 | 51.16453 | 1.03618 | 19477 ft | 419 kts | 92° |
| 2026-05-04 11:26 | 51.16410 | 1.12899 | 20319 ft | 425 kts | 92° |
| 2026-05-04 11:27 | 51.15890 | 1.46628 | 22979 ft | 445 kts | 97° |
| 2026-05-04 11:28 | 51.15626 | 1.51489 | 23303 ft | 448 kts | 97° |
| 2026-05-04 11:28 | 51.15337 | 1.56440 | 23634 ft | 451 kts | 98° |
| 2026-05-04 11:28 | 51.15050 | 1.61432 | 23924 ft | 453 kts | 97° |
| 2026-05-04 11:28 | 51.14776 | 1.66437 | 24233 ft | 455 kts | 97° |
| 2026-05-04 11:29 | 51.14515 | 1.71465 | 24545 ft | 456 kts | 97° |
| 2026-05-04 11:29 | 51.14263 | 1.76509 | 24844 ft | 458 kts | 97° |
| 2026-05-04 11:29 | 51.14015 | 1.81566 | 25140 ft | 459 kts | 97° |
| 2026-05-04 11:29 | 51.13766 | 1.86637 | 25426 ft | 460 kts | 97° |
| 2026-05-04 11:31 | 51.11873 | 2.22559 | 27186 ft | 471 kts | 98° |
| 2026-05-04 11:33 | 51.09828 | 2.58933 | 29064 ft | 470 kts | 100° |
| 2026-05-04 11:33 | 51.09290 | 2.64023 | 29364 ft | 464 kts | 109° |
| 2026-05-04 11:33 | 51.08302 | 2.68871 | 29654 ft | 458 kts | 117° |
| 2026-05-04 11:34 | 51.06983 | 2.73383 | 29954 ft | 455 kts | 121° |
| 2026-05-04 11:34 | 51.05589 | 2.77959 | 30235 ft | 454 kts | 121° |
| 2026-05-04 11:34 | 51.04234 | 2.82417 | 30487 ft | 453 kts | 121° |
| 2026-05-04 11:34 | 51.02869 | 2.86914 | 30719 ft | 452 kts | 121° |
| 2026-05-04 11:35 | 51.01501 | 2.91411 | 30960 ft | 452 kts | 121° |
| 2026-05-04 11:35 | 51.00132 | 2.95901 | 31184 ft | 452 kts | 122° |
| 2026-05-04 11:35 | 50.98761 | 3.00386 | 31420 ft | 451 kts | 122° |
| 2026-05-04 11:35 | 50.97387 | 3.04864 | 31663 ft | 451 kts | 122° |
| 2026-05-04 11:36 | 50.96016 | 3.09323 | 31881 ft | 450 kts | 122° |
| 2026-05-04 11:36 | 50.94642 | 3.13781 | 32122 ft | 450 kts | 122° |
| 2026-05-04 11:36 | 50.93282 | 3.18189 | 32351 ft | 450 kts | 122° |
| 2026-05-04 11:36 | 50.91908 | 3.22636 | 32574 ft | 450 kts | 122° |
| 2026-05-04 11:37 | 50.90530 | 3.27090 | 32806 ft | 449 kts | 122° |
| 2026-05-04 11:37 | 50.89153 | 3.31529 | 32992 ft | 450 kts | 123° |
| 2026-05-04 11:37 | 50.87770 | 3.35969 | 33164 ft | 451 kts | 123° |